Time;durP1;ratioP1;P1;durP2;ratioP2;P2;SDS_P1;SDS_P2;PMS_P1;PMS_P2;Temp;Humidity;BMP_temperature;BMP_pressure;BME280_temperature;BME280_humidity;BME280_pressure;Samples;Min_cycle;Max_cycle;Signal;HPM_P1;HPM_P2
2022/07/18 00:02:10;;;;;;;0.10;0.10;;;;;;;26.21;55.05;100416.72;5055124;28;20031;-78
2022/07/18 00:04:38;;;;;;;0.10;0.10;;;;;;;26.18;55.47;100416.84;5053961;28;20394;-77
2022/07/18 00:07:03;;;;;;;0.10;0.10;;;;;;;26.09;55.50;100412.66;5054006;28;20051;-77
2022/07/18 00:09:29;;;;;;;0.10;0.10;;;;;;;26.23;54.98;100410.53;5054027;28;20025;-78
2022/07/18 00:11:57;;;;;;;0.10;0.10;;;;;;;26.14;54.65;100414.13;5054026;28;20029;-78
2022/07/18 00:14:22;;;;;;;0.10;0.10;;;;;;;26.04;54.93;100407.53;5055630;28;20158;-77
2022/07/18 00:16:49;;;;;;;0.10;0.10;;;;;;;26.08;54.53;100405.38;5055099;28;20075;-78
2022/07/18 00:19:15;;;;;;;0.10;0.10;;;;;;;26.08;54.69;100408.22;5053975;28;20047;-78
2022/07/18 00:21:47;;;;;;;0.10;0.10;;;;;;;26.12;54.40;100406.03;5054879;28;20510;-78
2022/07/18 00:24:13;;;;;;;0.10;0.10;;;;;;;26.15;54.34;100406.34;5053991;28;20040;-77
2022/07/18 00:26:41;;;;;;;0.10;0.10;;;;;;;26.06;54.76;100402.19;5053726;28;20490;-78
2022/07/18 00:29:09;;;;;;;0.10;0.10;;;;;;;25.94;54.85;100400.22;5055057;28;20460;-76
2022/07/18 00:31:35;;;;;;;0.10;0.10;;;;;;;26.12;54.24;100397.47;5054773;28;20033;-78
2022/07/18 00:34:04;;;;;;;0.10;0.10;;;;;;;26.09;54.18;100394.75;5053524;28;20028;-78
2022/07/18 00:36:30;;;;;;;0.10;0.10;;;;;;;26.10;54.46;100397.16;5055179;28;20106;-78
2022/07/18 00:38:59;;;;;;;0.10;0.10;;;;;;;26.10;54.26;100404.94;5053424;28;20100;-78
2022/07/18 00:41:25;;;;;;;0.10;0.10;;;;;;;26.12;54.03;100399.53;5053294;28;20120;-78
2022/07/18 00:43:51;;;;;;;0.10;0.10;;;;;;;26.20;53.71;100406.53;5052479;28;20159;-78
2022/07/18 00:46:25;;;;;;;0.10;0.10;;;;;;;26.20;53.16;100400.06;5053744;28;20120;-77
2022/07/18 00:48:53;;;;;;;0.10;0.10;;;;;;;26.17;52.85;100390.38;5053637;28;20029;-80
2022/07/18 00:51:23;;;;;;;0.10;0.10;;;;;;;26.15;53.28;100401.44;5053356;28;20484;-77
2022/07/18 00:53:49;;;;;;;0.10;0.10;;;;;;;26.08;53.62;100393.97;5052994;28;20033;-78
2022/07/18 00:56:19;;;;;;;0.13;0.13;;;;;;;26.05;53.53;100394.91;5052966;28;20029;-77
2022/07/18 00:58:45;;;;;;;0.10;0.10;;;;;;;26.02;53.35;100392.97;5036561;28;20032;-77
2022/07/18 01:03:55;;;;;;;0.10;0.10;;;;;;;26.00;53.18;100403.25;5054912;28;20040;-79
2022/07/18 01:06:21;;;;;;;0.10;0.10;;;;;;;26.08;53.25;100405.38;5053093;28;20090;-78
2022/07/18 01:08:49;;;;;;;0.10;0.10;;;;;;;25.96;53.39;100402.59;5053819;28;20061;-78
2022/07/18 01:11:18;;;;;;;0.10;0.10;;;;;;;26.00;52.93;100401.22;5052774;28;20029;-79
2022/07/18 01:13:44;;;;;;;0.10;0.10;;;;;;;25.96;53.28;100403.38;5052743;28;20029;-77
2022/07/18 01:16:12;;;;;;;0.10;0.10;;;;;;;25.93;53.58;100392.09;5052895;28;20045;-80
2022/07/18 01:18:44;;;;;;;0.10;0.10;;;;;;;25.97;53.23;100396.41;5052907;28;20029;-79
2022/07/18 01:21:09;;;;;;;0.10;0.10;;;;;;;25.86;53.55;100387.47;5052695;28;20025;-78
2022/07/18 01:23:38;;;;;;;0.10;0.10;;;;;;;25.86;53.59;100393.97;5052614;28;20033;-78
2022/07/18 01:26:04;;;;;;;0.10;0.10;;;;;;;25.88;54.14;100399.19;5052596;28;20123;-77
2022/07/18 01:28:32;;;;;;;0.10;0.10;;;;;;;25.84;53.88;100396.50;5052579;28;20056;-78
2022/07/18 01:30:57;;;;;;;0.10;0.10;;;;;;;25.87;53.94;100406.16;5052464;28;20033;-77
2022/07/18 01:33:23;;;;;;;0.10;0.10;;;;;;;25.84;54.29;100402.19;5053054;28;20032;-77
2022/07/18 01:35:48;;;;;;;0.10;0.10;;;;;;;25.99;54.06;100405.28;5052521;28;20033;-78
2022/07/18 01:38:14;;;;;;;0.10;0.10;;;;;;;25.93;54.13;100401.44;5052606;28;20036;-77
2022/07/18 01:40:41;;;;;;;0.10;0.10;;;;;;;25.99;53.95;100407.34;5051938;28;20037;-77
2022/07/18 01:43:07;;;;;;;0.10;0.10;;;;;;;25.99;54.33;100404.50;5052908;28;20029;-77
2022/07/18 01:45:34;;;;;;;0.10;0.10;;;;;;;25.99;54.30;100405.28;5052310;28;20036;-77
2022/07/18 01:48:00;;;;;;;0.10;0.10;;;;;;;26.03;54.17;100403.13;5052754;28;20082;-77
2022/07/18 01:50:26;;;;;;;0.10;0.10;;;;;;;26.04;53.73;100401.84;5052732;28;20465;-78
2022/07/18 01:52:57;;;;;;;0.10;0.10;;;;;;;26.08;54.38;100404.56;5052396;28;20542;-78
2022/07/18 01:55:25;;;;;;;0.10;0.10;;;;;;;26.00;54.30;100404.06;5052279;28;20463;-79
2022/07/18 01:57:53;;;;;;;0.10;0.10;;;;;;;26.03;53.50;100403.13;5052527;28;20443;-79
2022/07/18 02:00:19;;;;;;;0.10;0.10;;;;;;;25.95;53.55;100412.41;5052475;28;20151;-78
2022/07/18 02:02:44;;;;;;;0.10;0.10;;;;;;;25.86;54.51;100398.88;5052171;28;20478;-78
2022/07/18 02:05:10;;;;;;;0.10;0.10;;;;;;;25.97;53.34;100399.28;5052450;28;20037;-78
2022/07/18 02:07:38;;;;;;;0.10;0.10;;;;;;;25.96;53.33;100406.25;5051731;28;20048;-77
2022/07/18 02:10:13;;;;;;;0.10;0.10;;;;;;;25.94;53.38;100399.41;5052101;28;20025;-78
2022/07/18 02:12:40;;;;;;;0.10;0.10;;;;;;;26.04;52.42;100404.69;5053420;28;20154;-79
2022/07/18 02:15:07;;;;;;;0.10;0.10;;;;;;;25.93;53.01;100392.09;5053376;28;20021;-77
2022/07/18 02:17:36;;;;;;;0.10;0.10;;;;;;;25.91;52.53;100394.63;5052014;28;20029;-78
2022/07/18 02:20:02;;;;;;;0.10;0.10;;;;;;;25.83;52.44;100394.09;5054520;28;20108;-78
2022/07/18 02:22:28;;;;;;;0.10;0.10;;;;;;;25.88;52.11;100384.94;5055920;28;20029;-78
2022/07/18 02:24:53;;;;;;;0.10;0.10;;;;;;;25.99;52.00;100385.34;5056080;28;20090;-78
2022/07/18 02:27:21;;;;;;;0.10;0.10;;;;;;;25.98;50.96;100388.66;5056051;28;20033;-78
2022/07/18 02:29:47;;;;;;;0.10;0.10;;;;;;;26.00;51.50;100395.50;5057854;28;20036;-79
2022/07/18 02:32:14;;;;;;;0.10;0.10;;;;;;;25.87;50.73;100369.09;5057091;28;20021;-77
2022/07/18 02:34:41;;;;;;;0.10;0.10;;;;;;;25.81;50.72;100365.28;5055996;28;20037;-78
2022/07/18 02:37:10;;;;;;;0.10;0.10;;;;;;;25.84;50.91;100390.78;5057157;28;20029;-77
2022/07/18 02:39:37;;;;;;;0.10;0.10;;;;;;;25.90;50.71;100391.00;5057389;28;20033;-79
2022/07/18 02:42:06;;;;;;;0.10;0.10;;;;;;;25.91;50.14;100394.63;5055518;28;20036;-78
2022/07/18 02:44:34;;;;;;;0.10;0.10;;;;;;;25.93;50.01;100386.41;5055688;28;20047;-78
2022/07/18 02:47:03;;;;;;;0.10;0.10;;;;;;;25.97;49.58;100390.72;5055570;28;20120;-78
2022/07/18 02:49:28;;;;;;;0.10;0.10;;;;;;;25.90;49.90;100385.28;5055416;28;20032;-78
2022/07/18 02:52:02;;;;;;;0.10;0.10;;;;;;;26.01;48.81;100402.78;5055419;28;20036;-78
2022/07/18 02:54:29;;;;;;;0.10;0.10;;;;;;;26.09;48.67;100395.53;5055276;28;20039;-78
2022/07/18 02:56:58;;;;;;;0.10;0.10;;;;;;;26.06;48.79;100390.00;5056936;28;20029;-78
2022/07/18 02:59:25;;;;;;;0.10;0.10;;;;;;;25.96;48.59;100386.28;5055418;28;20090;-78
2022/07/18 03:01:50;;;;;;;0.10;0.10;;;;;;;25.97;48.33;100387.88;5057162;28;20089;-78
2022/07/18 03:04:17;;;;;;;0.10;0.10;;;;;;;26.09;47.54;100395.53;5056833;28;20025;-78
2022/07/18 03:06:45;;;;;;;0.10;0.10;;;;;;;26.12;47.46;100391.00;5055088;28;20402;-78
2022/07/18 03:09:14;;;;;;;0.10;0.10;;;;;;;26.00;47.41;100398.34;5056050;28;20033;-77
2022/07/18 03:11:40;;;;;;;0.15;0.15;;;;;;;25.99;47.70;100395.94;5055532;28;20371;-78
2022/07/18 03:14:11;;;;;;;0.10;0.10;;;;;;;25.90;47.82;100395.91;5056005;28;20029;-78
2022/07/18 03:16:39;;;;;;;0.10;0.10;;;;;;;25.89;48.19;100389.41;5054938;28;20532;-78
2022/07/18 03:19:05;;;;;;;0.10;0.10;;;;;;;25.93;48.09;100392.09;5054875;28;20028;-79
2022/07/18 03:21:33;;;;;;;0.10;0.10;;;;;;;25.88;48.24;100392.69;5054974;28;20035;-79
2022/07/18 03:23:58;;;;;;;0.10;0.10;;;;;;;26.07;47.43;100395.22;5055133;28;20301;-79
2022/07/18 03:26:24;;;;;;;0.10;0.10;;;;;;;26.07;47.54;100395.22;5054749;28;20043;-78
2022/07/18 03:28:49;;;;;;;0.10;0.10;;;;;;;26.06;47.66;100387.16;5055245;28;20031;-78
2022/07/18 03:31:15;;;;;;;0.10;0.10;;;;;;;26.01;47.73;100394.25;5054516;28;20467;-79
2022/07/18 03:33:40;;;;;;;0.10;0.10;;;;;;;26.07;47.17;100389.53;5054691;28;20040;-78
2022/07/18 03:36:08;;;;;;;0.10;0.10;;;;;;;26.15;47.19;100394.94;5054693;28;20025;-77
2022/07/18 03:38:35;;;;;;;0.10;0.10;;;;;;;26.05;47.19;100400.63;5054569;28;20029;-79
2022/07/18 03:41:04;;;;;;;0.10;0.10;;;;;;;25.96;47.12;100400.53;5056179;28;20374;-78
2022/07/18 03:43:30;;;;;;;0.10;0.10;;;;;;;26.02;47.01;100395.81;5054977;28;20144;-78
2022/07/18 03:45:56;;;;;;;0.10;0.10;;;;;;;26.05;47.07;100397.75;5054736;28;20509;-78
2022/07/18 03:48:24;;;;;;;0.20;0.20;;;;;;;26.00;46.70;100392.66;5054485;28;20036;-79
2022/07/18 03:50:49;;;;;;;0.10;0.10;;;;;;;26.07;46.26;100397.28;5055074;28;20021;-78
2022/07/18 03:53:15;;;;;;;0.10;0.10;;;;;;;25.99;46.55;100395.94;5054273;28;20021;-78
2022/07/18 03:55:40;;;;;;;0.10;0.10;;;;;;;26.12;46.46;100408.88;5054838;28;20029;-78
2022/07/18 03:58:06;;;;;;;0.10;0.10;;;;;;;26.10;46.40;100391.47;5054491;28;20083;-78
2022/07/18 04:00:33;;;;;;;0.10;0.10;;;;;;;26.16;45.51;100400.22;5054792;28;20106;-78
2022/07/18 04:02:59;;;;;;;0.10;0.10;;;;;;;26.05;45.75;100374.16;5054584;28;20028;-78
2022/07/18 04:05:27;;;;;;;0.10;0.10;;;;;;;26.10;45.84;100391.47;5054450;28;20021;-78
2022/07/18 04:07:56;;;;;;;0.10;0.10;;;;;;;26.22;45.58;100392.63;5055093;28;20040;-78
2022/07/18 04:10:24;;;;;;;0.10;0.10;;;;;;;26.27;45.68;100399.81;5054132;28;20039;-78
2022/07/18 04:12:51;;;;;;;0.10;0.10;;;;;;;26.25;45.48;100397.41;5053956;28;20494;-78
2022/07/18 04:15:21;;;;;;;0.10;0.10;;;;;;;26.33;45.67;100403.63;5053803;28;20050;-78
2022/07/18 04:17:47;;;;;;;0.10;0.10;;;;;;;26.59;44.99;100396.50;5055661;28;20166;-77
2022/07/18 04:20:16;;;;;;;0.10;0.10;;;;;;;26.95;44.18;100399.97;5053931;28;20490;-78
2022/07/18 04:22:52;;;;;;;0.15;0.15;;;;;;;27.35;43.36;100399.94;5053612;28;20498;-77
2022/07/18 04:25:23;;;;;;;0.10;0.10;;;;;;;27.69;42.97;100396.78;5054420;28;20417;-79
2022/07/18 04:27:54;;;;;;;0.10;0.10;;;;;;;28.05;42.31;100403.78;5053464;28;20029;-78
2022/07/18 04:30:23;;;;;;;0.10;0.10;;;;;;;28.38;41.60;100397.41;5053658;28;20025;-77
2022/07/18 04:32:49;;;;;;;0.10;0.10;;;;;;;28.75;40.92;100398.06;5054298;28;20037;-78
2022/07/18 04:35:14;;;;;;;0.10;0.10;;;;;;;29.15;40.25;100403.47;5053795;28;20441;-78
2022/07/18 04:37:40;;;;;;;0.10;0.10;;;;;;;29.50;39.42;100389.38;5053559;28;20053;-79
2022/07/18 04:40:08;;;;;;;0.10;0.10;;;;;;;29.82;39.02;100397.59;5053354;28;20031;-77
2022/07/18 04:42:34;;;;;;;0.10;0.10;;;;;;;30.14;37.98;100399.53;5053403;28;20091;-78
2022/07/18 04:45:02;;;;;;;0.10;0.10;;;;;;;30.37;36.90;100402.84;5054667;28;20104;-77
2022/07/18 04:47:31;;;;;;;0.10;0.10;;;;;;;30.72;36.96;100417.28;5053278;28;20464;-78
2022/07/18 04:49:56;;;;;;;0.10;0.10;;;;;;;31.04;36.27;100409.69;5053691;28;20045;-78
2022/07/18 04:52:23;;;;;;;0.10;0.10;;;;;;;31.37;35.81;100402.84;5054191;28;20415;-78
2022/07/18 04:54:52;;;;;;;0.10;0.10;;;;;;;31.54;35.43;100383.75;5053606;28;20029;-77
2022/07/18 04:57:20;;;;;;;0.10;0.10;;;;;;;31.87;34.63;100405.59;5054118;28;20025;-78
2022/07/18 04:59:45;;;;;;;0.10;0.10;;;;;;;32.14;34.33;100399.34;5054016;28;20460;-78
2022/07/18 05:02:11;;;;;;;0.10;0.10;;;;;;;32.58;33.92;100409.72;5053239;28;20057;-77
2022/07/18 05:04:38;;;;;;;0.10;0.10;;;;;;;32.82;33.43;100406.53;5053486;28;20029;-78
2022/07/18 05:07:04;;;;;;;0.10;0.10;;;;;;;32.93;32.73;100402.97;5053928;28;20163;-77
2022/07/18 05:09:30;;;;;;;0.10;0.10;;;;;;;33.06;33.04;100411.94;5053356;28;20021;-77
2022/07/18 05:11:58;;;;;;;0.10;0.10;;;;;;;33.36;32.24;100416.06;5052700;28;20475;-77
2022/07/18 05:14:26;;;;;;;0.10;0.10;;;;;;;33.38;32.23;100407.66;5053268;28;20033;-78
2022/07/18 05:16:55;;;;;;;0.10;0.10;;;;;;;33.92;31.88;100412.63;5054060;28;20025;-79
2022/07/18 05:19:23;;;;;;;0.10;0.10;;;;;;;34.04;31.57;100411.41;5052381;28;20037;-79
2022/07/18 05:21:51;;;;;;;0.10;0.10;;;;;;;34.08;31.68;100414.00;5052636;28;20083;-79
2022/07/18 05:24:19;;;;;;;0.10;0.10;;;;;;;34.49;31.06;100425.13;5053138;28;20487;-78
2022/07/18 05:26:45;;;;;;;0.10;0.10;;;;;;;35.02;30.61;100426.19;5053767;28;20051;-78
2022/07/18 05:29:12;;;;;;;0.10;0.10;;;;;;;35.05;30.14;100431.72;5052946;28;20054;-78
2022/07/18 05:31:41;;;;;;;0.10;0.10;;;;;;;35.24;30.23;100431.91;5053384;28;20467;-78
2022/07/18 05:34:07;;;;;;;0.10;0.10;;;;;;;35.27;30.78;100433.75;5053937;28;20120;-78
2022/07/18 05:36:33;;;;;;;0.10;0.10;;;;;;;35.27;30.92;100436.66;5052751;28;20446;-77
2022/07/18 05:39:01;;;;;;;0.10;0.10;;;;;;;35.55;30.00;100427.91;5052186;28;20064;-78
2022/07/18 05:41:27;;;;;;;0.10;0.10;;;;;;;35.96;29.22;100438.81;5052512;28;20036;-78
2022/07/18 05:43:52;;;;;;;0.10;0.10;;;;;;;36.00;28.16;100445.09;5052840;28;20025;-77
2022/07/18 05:46:20;;;;;;;0.10;0.10;;;;;;;36.12;28.07;100446.63;5052837;28;20029;-77
2022/07/18 05:48:46;;;;;;;0.10;0.10;;;;;;;36.19;27.96;100440.25;5053610;28;20037;-77
2022/07/18 05:51:12;;;;;;;0.10;0.10;;;;;;;36.47;27.39;100437.16;5052184;28;20067;-77
2022/07/18 05:53:40;;;;;;;0.10;0.10;;;;;;;36.33;27.43;100444.13;5052153;28;20033;-77
2022/07/18 05:56:06;;;;;;;0.10;0.10;;;;;;;36.62;27.05;100444.72;5051802;28;20035;-77
2022/07/18 05:58:34;;;;;;;0.10;0.10;;;;;;;36.49;26.59;100435.84;5052072;28;20040;-78
2022/07/18 06:00:59;;;;;;;0.10;0.10;;;;;;;36.40;27.62;100443.53;5052203;28;20025;-78
2022/07/18 06:03:25;;;;;;;0.10;0.10;;;;;;;36.68;27.45;100443.34;5052140;28;20036;-78
2022/07/18 06:05:53;;;;;;;0.10;0.10;;;;;;;37.01;27.39;100443.59;5052336;28;20053;-78
2022/07/18 06:08:21;;;;;;;0.10;0.10;;;;;;;36.74;26.87;100440.38;5051729;28;20025;-78
2022/07/18 06:10:49;;;;;;;0.10;0.10;;;;;;;36.54;27.53;100449.50;5052627;28;20060;-78
2022/07/18 06:13:15;;;;;;;0.10;0.10;;;;;;;36.80;26.89;100446.91;5053662;28;20056;-77
2022/07/18 06:15:40;;;;;;;0.10;0.10;;;;;;;36.92;26.88;100448.44;5051858;28;20052;-78
2022/07/18 06:18:05;;;;;;;0.10;0.10;;;;;;;36.84;26.98;100432.91;5052448;28;20021;-77
2022/07/18 06:20:34;;;;;;;0.10;0.10;;;;;;;36.46;27.18;100434.81;5052465;28;20083;-78
2022/07/18 06:23:02;;;;;;;0.10;0.10;;;;;;;36.10;27.99;100443.44;5053325;28;20029;-77
2022/07/18 06:25:27;;;;;;;0.10;0.10;;;;;;;36.87;27.98;100440.53;5051741;28;20056;-75
2022/07/18 06:27:55;;;;;;;0.10;0.10;;;;;;;36.70;27.93;100439.88;5051825;28;20063;-78
2022/07/18 06:30:22;;;;;;;0.10;0.10;;;;;;;37.10;27.51;100441.13;5051825;28;20410;-78
2022/07/18 06:32:48;;;;;;;0.10;0.10;;;;;;;37.80;26.00;100432.69;5052428;28;20059;-78
2022/07/18 06:35:14;;;;;;;0.10;0.10;;;;;;;37.85;26.58;100443.47;5052003;28;20378;-77
2022/07/18 06:37:39;;;;;;;0.10;0.10;;;;;;;38.10;26.21;100444.19;5052118;28;20024;-78
2022/07/18 06:40:06;;;;;;;0.10;0.10;;;;;;;37.51;27.44;100439.41;5051910;28;20025;-79
2022/07/18 06:42:31;;;;;;;0.10;0.10;;;;;;;37.89;26.62;100441.06;5052627;28;20037;-78
2022/07/18 06:44:56;;;;;;;0.10;0.10;;;;;;;36.90;26.77;100442.38;5051263;28;20059;-78
2022/07/18 06:47:22;;;;;;;0.10;0.10;;;;;;;36.33;27.40;100444.13;5051702;28;20075;-77
2022/07/18 06:49:47;;;;;;;0.10;0.10;;;;;;;36.25;27.41;100443.09;5051410;28;20059;-77
2022/07/18 06:52:16;;;;;;;0.10;0.10;;;;;;;36.96;27.10;100440.19;5051399;28;20033;-77
2022/07/18 06:54:42;;;;;;;0.10;0.10;;;;;;;37.75;25.51;100443.03;5051204;28;20033;-77
2022/07/18 06:57:09;;;;;;;0.10;0.10;;;;;;;37.07;26.33;100444.31;5051943;28;20078;-77
2022/07/18 06:59:35;;;;;;;0.10;0.10;;;;;;;36.24;27.67;100450.22;5052179;28;20048;-78
2022/07/18 07:02:04;;;;;;;0.10;0.10;;;;;;;35.39;28.22;100426.63;5051824;28;20033;-78
2022/07/18 07:04:30;;;;;;;0.10;0.10;;;;;;;35.57;27.10;100441.84;5051625;28;20029;-77
2022/07/18 07:06:58;;;;;;;0.10;0.10;;;;;;;35.36;27.97;100436.34;5055218;28;20499;-76
2022/07/18 07:09:27;;;;;;;0.10;0.10;;;;;;;35.22;28.02;100437.44;5055883;28;20025;-78
2022/07/18 07:11:55;;;;;;;0.10;0.10;;;;;;;35.65;27.50;100431.28;5055306;28;20467;-78
2022/07/18 07:14:20;;;;;;;0.10;0.10;;;;;;;36.07;26.92;100429.28;5055696;28;20052;-77
2022/07/18 07:16:46;;;;;;;0.10;0.10;;;;;;;36.36;26.15;100436.44;5054909;28;20408;-77
2022/07/18 07:19:11;;;;;;;0.10;0.10;;;;;;;36.93;25.73;100431.81;5054551;28;20437;-78
2022/07/18 07:21:40;;;;;;;0.10;0.10;;;;;;;37.94;25.01;100431.47;5056115;28;20025;-78
2022/07/18 07:24:05;;;;;;;0.10;0.10;;;;;;;37.51;24.95;100427.81;5054655;28;20025;-77
2022/07/18 07:26:31;;;;;;;0.10;0.10;;;;;;;38.37;24.40;100427.72;5054571;28;20127;-77
2022/07/18 07:28:59;;;;;;;0.10;0.10;;;;;;;38.55;24.40;100429.00;5054449;28;20024;-78
2022/07/18 07:31:27;;;;;;;0.10;0.10;;;;;;;38.73;24.10;100424.47;5054497;28;20056;-76
2022/07/18 07:33:55;;;;;;;0.10;0.10;;;;;;;39.25;23.12;100420.91;5054683;28;20032;-77
2022/07/18 07:36:24;;;;;;;0.10;0.10;;;;;;;39.33;23.11;100429.75;5056152;28;20043;-77
2022/07/18 07:38:52;;;;;;;0.10;0.10;;;;;;;39.95;21.96;100432.19;5055571;28;20028;-78
2022/07/18 07:41:18;;;;;;;0.10;0.10;;;;;;;39.94;22.83;100430.59;5054830;28;20032;-78
2022/07/18 07:43:46;;;;;;;0.10;0.10;;;;;;;40.26;22.77;100433.34;5054241;28;20594;-77
2022/07/18 07:46:11;;;;;;;0.10;0.10;;;;;;;40.53;21.76;100434.03;5054534;28;20459;-77
2022/07/18 07:48:38;;;;;;;0.10;0.10;;;;;;;40.22;22.51;100427.09;5055347;28;20032;-78
2022/07/18 07:51:04;;;;;;;0.10;0.10;;;;;;;39.80;22.64;100414.53;5055588;28;20033;-78
2022/07/18 07:53:35;;;;;;;0.10;0.10;;;;;;;39.52;23.08;100415.84;5037891;28;20025;-77
2022/07/18 07:56:04;;;;;;;0.10;0.10;;;;;;;38.83;23.73;100419.03;5053931;28;20029;-77
2022/07/18 07:58:34;;;;;;;0.10;0.10;;;;;;;39.81;22.84;100419.00;5053914;28;20090;-78
2022/07/18 08:01:00;;;;;;;0.10;0.10;;;;;;;39.06;23.35;100423.09;5053807;28;20494;-78
2022/07/18 08:03:29;;;;;;;0.10;0.10;;;;;;;38.37;24.21;100421.91;5053542;28;20017;-78
2022/07/18 08:05:55;;;;;;;0.10;0.10;;;;;;;38.19;24.39;100422.66;5053464;28;20055;-77
2022/07/18 08:08:25;;;;;;;0.10;0.10;;;;;;;38.29;23.84;100417.25;5053562;28;20033;-76
2022/07/18 08:10:53;;;;;;;0.10;0.10;;;;;;;38.42;23.38;100417.34;5053566;28;20044;-79
2022/07/18 08:13:18;;;;;;;0.10;0.10;;;;;;;39.06;23.01;100423.09;5053934;28;20025;-78
2022/07/18 08:15:47;;;;;;;0.10;0.10;;;;;;;39.02;22.53;100426.34;5054816;28;20029;-78
2022/07/18 08:18:12;;;;;;;0.10;0.10;;;;;;;38.60;22.67;100428.13;5053530;28;20025;-77
2022/07/18 08:20:38;;;;;;;0.10;0.10;;;;;;;38.67;22.16;100403.41;5053472;28;20074;-77
2022/07/18 08:23:10;;;;;;;0.10;0.10;;;;;;;39.57;22.37;100402.53;5053239;28;20028;-78
2022/07/18 08:25:43;;;;;;;0.10;0.10;;;;;;;40.23;20.76;100419.91;5055343;28;20041;-77
2022/07/18 08:28:12;;;;;;;0.10;0.10;;;;;;;39.67;21.47;100420.34;5053977;28;20155;-77
2022/07/18 08:30:39;;;;;;;0.10;0.10;;;;;;;39.02;22.42;100423.44;5055271;28;20033;-77
2022/07/18 08:33:06;;;;;;;0.10;0.10;;;;;;;39.25;22.22;100426.72;5054586;28;20017;-78
2022/07/18 08:35:32;;;;;;;0.10;0.10;;;;;;;40.09;21.71;100423.44;5037121;28;20060;-77
2022/07/18 08:38:02;;;;;;;0.10;0.10;;;;;;;39.82;21.69;100420.56;5054207;28;20159;-78
2022/07/18 08:40:30;;;;;;;0.10;0.10;;;;;;;39.24;22.84;100427.28;5052855;28;20037;-78
2022/07/18 08:42:57;;;;;;;0.10;0.10;;;;;;;38.56;23.56;100421.84;5053434;28;20087;-78
2022/07/18 08:45:24;;;;;;;0.10;0.10;;;;;;;38.38;23.34;100423.47;5053649;28;20029;-77
2022/07/18 08:47:51;;;;;;;0.10;0.10;;;;;;;38.83;23.08;100431.44;5053112;28;20092;-77
2022/07/18 08:50:17;;;;;;;0.10;0.10;;;;;;;39.03;22.80;100427.91;5053235;28;20033;-78
2022/07/18 08:52:44;;;;;;;0.10;0.10;;;;;;;39.09;22.88;100432.84;5052805;28;20021;-78
2022/07/18 08:55:10;;;;;;;0.10;0.10;;;;;;;39.12;22.53;100425.91;5052443;28;20044;-77
2022/07/18 08:57:36;;;;;;;0.10;0.10;;;;;;;38.49;22.53;100437.81;5052286;28;20122;-77
2022/07/18 09:00:06;;;;;;;0.10;0.10;;;;;;;38.63;22.83;100432.06;5052037;28;20033;-78
2022/07/18 09:02:32;;;;;;;0.10;0.10;;;;;;;38.36;23.16;100431.16;5048952;28;20115;-78
2022/07/18 09:05:00;;;;;;;0.10;0.10;;;;;;;38.80;23.28;100438.38;5052152;28;20029;-78
2022/07/18 09:07:37;;;;;;;0.10;0.10;;;;;;;38.68;22.61;100429.03;5052161;28;20048;-76
2022/07/18 09:10:05;;;;;;;0.10;0.10;;;;;;;39.12;22.68;100431.72;5052557;28;20474;-77
2022/07/18 09:12:33;;;;;;;0.10;0.10;;;;;;;40.20;21.54;100438.50;5052423;28;20044;-78
2022/07/18 09:15:15;;;;;;;0.10;0.10;;;;;;;39.79;21.66;100427.50;5051984;28;20027;-77
2022/07/18 09:17:43;;;;;;;0.10;0.10;;;;;;;40.91;20.67;100438.63;5054065;28;20037;-78
2022/07/18 09:20:15;;;;;;;0.10;0.10;;;;;;;40.22;21.16;100438.75;5052728;28;20029;-78
2022/07/18 09:22:52;;;;;;;;;;;;;;;39.41;21.73;100424.81;5053998;28;20044;-78
2022/07/18 09:25:21;;;;;;;0.10;0.10;;;;;;;39.78;21.41;100428.84;5052234;28;19958;-78
